Time;durP1;ratioP1;P1;durP2;ratioP2;P2;SDS_P1;SDS_P2;PMS_P1;PMS_P2;Temp;Humidity;BMP_temperature;BMP_pressure;BME280_temperature;BME280_humidity;BME280_pressure;Samples;Min_cycle;Max_cycle;Signal;HPM_P1;HPM_P2
2022/11/02 00:01:28;;;;;;;55.72;29.27;;;384.40;2329.60;;;;;;5131970;27;20031;-56
2022/11/02 00:03:54;;;;;;;40.05;20.52;;;384.60;2329.60;;;;;;5131841;27;20019;-66
2022/11/02 00:06:20;;;;;;;35.20;18.55;;;384.70;2329.60;;;;;;5131709;27;20106;-67
2022/11/02 00:08:45;;;;;;;27.13;16.02;;;384.60;2329.60;;;;;;5131513;27;20053;-66
2022/11/02 00:11:11;;;;;;;21.73;14.90;;;384.60;2329.60;;;;;;5131190;27;20503;-65
2022/11/02 00:13:37;;;;;;;21.65;11.73;;;384.60;2329.60;;;;;;5132184;27;20485;-66
2022/11/02 00:16:10;;;;;;;19.30;10.43;;;384.40;2329.60;;;;;;5131471;27;20048;-65
2022/11/02 00:18:36;;;;;;;19.05;10.07;;;384.30;2329.60;;;;;;5131737;27;20092;-60
2022/11/02 00:21:03;;;;;;;20.20;13.27;;;384.10;2329.60;;;;;;5131546;27;20027;-62
2022/11/02 00:23:29;;;;;;;22.83;10.65;;;384.00;2329.60;;;;;;5131216;27;20019;-65
2022/11/02 00:25:56;;;;;;;18.23;10.80;;;359.30;2329.60;;;;;;5131345;27;20031;-67
2022/11/02 00:28:22;;;;;;;20.83;10.43;;;359.20;2329.60;;;;;;5131196;27;20028;-64
2022/11/02 00:30:48;;;;;;;20.88;12.13;;;359.30;2329.60;;;;;;5131042;27;20537;-62
2022/11/02 00:33:14;;;;;;;26.05;15.77;;;384.00;2329.60;;;;;;5130843;27;20027;-65
2022/11/02 00:35:41;;;;;;;20.13;10.60;;;359.30;2329.60;;;;;;5131102;27;20503;-58
2022/11/02 00:38:07;;;;;;;16.33;10.63;;;359.20;2329.60;;;;;;5131264;27;20034;-64
2022/11/02 00:40:32;;;;;;;18.60;9.98;;;359.20;2329.60;;;;;;5130888;27;20047;-62
2022/11/02 00:42:58;;;;;;;15.52;9.93;;;359.00;2329.60;;;;;;5130960;27;20023;-62
2022/11/02 00:45:24;;;;;;;17.45;9.27;;;359.00;2329.60;;;;;;5131306;27;20027;-69
2022/11/02 00:47:50;;;;;;;30.35;14.05;;;359.00;2329.60;;;;;;5131019;27;20023;-57
2022/11/02 00:50:16;;;;;;;22.35;11.65;;;359.00;2329.60;;;;;;5131067;27;20031;-58
2022/11/02 00:52:42;;;;;;;20.27;11.00;;;358.90;2329.60;;;;;;5130737;27;20505;-70
2022/11/02 00:55:09;;;;;;;20.95;13.02;;;358.90;2329.60;;;;;;5131125;28;20023;-57
2022/11/02 00:57:37;;;;;;;25.92;14.77;;;358.90;2329.60;;;;;;5131187;28;20023;-69
2022/11/02 01:00:05;;;;;;;15.40;10.15;;;358.80;2329.60;;;;;;5130981;28;20460;-71
2022/11/02 01:02:32;;;;;;;25.35;12.65;;;358.90;2329.60;;;;;;5131005;28;20528;-60
2022/11/02 01:04:58;;;;;;;30.27;15.70;;;358.90;2329.60;;;;;;5130898;28;20483;-66
2022/11/02 01:07:25;;;;;;;30.67;18.52;;;358.80;2329.60;;;;;;5130997;28;20019;-58
2022/11/02 01:09:51;;;;;;;28.23;15.38;;;358.80;2329.60;;;;;;5130662;28;20106;-70
2022/11/02 01:12:17;;;;;;;20.88;11.88;;;358.80;2329.60;;;;;;5130917;28;20601;-67
2022/11/02 01:14:44;;;;;;;21.38;11.07;;;358.80;2329.60;;;;;;5131077;28;20024;-68
2022/11/02 01:17:10;;;;;;;25.17;12.13;;;358.80;2329.60;;;;;;5130647;28;20063;-66
2022/11/02 01:19:35;;;;;;;18.83;11.45;;;358.80;2329.60;;;;;;5131022;28;20054;-64
2022/11/02 01:22:01;;;;;;;22.75;12.10;;;358.80;2329.60;;;;;;5130747;28;20055;-69
2022/11/02 01:24:27;;;;;;;27.50;12.20;;;358.80;2329.60;;;;;;5130839;28;20071;-56
2022/11/02 01:26:52;;;;;;;29.00;12.38;;;358.90;2329.60;;;;;;5130942;28;20383;-58
2022/11/02 01:29:18;;;;;;;23.73;13.15;;;358.80;2329.60;;;;;;5130893;28;20019;-66
2022/11/02 01:31:44;;;;;;;23.92;15.15;;;358.80;2329.60;;;;;;5130721;28;20035;-69
2022/11/02 01:34:10;;;;;;;55.90;37.35;;;358.80;2329.60;;;;;;5130466;28;20076;-56
2022/11/02 01:36:37;;;;;;;33.03;22.73;;;358.80;2329.60;;;;;;5130733;28;20362;-65
2022/11/02 01:39:02;;;;;;;219.18;138.55;;;358.80;2329.60;;;;;;5130296;28;20042;-68
2022/11/02 01:41:28;;;;;;;83.55;49.58;;;358.90;2329.60;;;;;;5130371;28;20031;-59
2022/11/02 01:43:57;;;;;;;43.15;26.00;;;359.00;2329.60;;;;;;5130801;27;20406;-60
2022/11/02 01:46:30;;;;;;;72.40;41.63;;;358.90;2329.60;;;;;;5134571;27;20112;-57
2022/11/02 01:49:09;;;;;;;19.25;9.10;;;358.80;2329.60;;;;;;5134483;27;20094;-68
2022/11/02 01:51:44;;;;;;;136.48;75.55;;;358.90;2329.60;;;;;;5134378;27;20046;-67
2022/11/02 01:54:21;;;;;;;52.10;27.80;;;358.80;2329.60;;;;;;5134247;27;20035;-60
2022/11/02 01:56:51;;;;;;;48.40;25.35;;;358.80;2329.60;;;;;;5134174;27;20015;-62
2022/11/02 01:59:23;;;;;;;20.05;12.23;;;358.70;2329.60;;;;;;5134333;27;20015;-57
2022/11/02 02:01:49;;;;;;;21.50;12.02;;;358.70;2329.60;;;;;;5133975;27;20536;-61
2022/11/02 02:04:15;;;;;;;35.38;19.00;;;358.60;2329.60;;;;;;5134130;27;20055;-57
2022/11/02 02:06:42;;;;;;;38.78;19.70;;;358.60;2329.60;;;;;;5133995;27;20503;-65
2022/11/02 02:09:09;;;;;;;27.83;14.02;;;358.50;2329.60;;;;;;5134207;27;20483;-58
2022/11/02 02:11:37;;;;;;;50.22;27.27;;;358.50;2329.60;;;;;;5133999;27;20039;-58
2022/11/02 02:14:08;;;;;;;20.02;11.07;;;358.50;2329.60;;;;;;5133909;27;20023;-59
2022/11/02 02:16:36;;;;;;;22.83;10.75;;;358.40;2329.60;;;;;;5133912;27;20019;-62
2022/11/02 02:19:25;;;;;;;36.88;23.08;;;358.40;2329.60;;;;;;5133870;27;20015;-59
2022/11/02 02:22:04;;;;;;;28.23;18.42;;;358.40;2329.60;;;;;;5133601;27;20027;-63
2022/11/02 02:24:45;;;;;;;25.92;12.30;;;358.40;2329.60;;;;;;5133617;27;20038;-68
2022/11/02 02:27:16;;;;;;;19.98;9.32;;;333.70;2329.60;;;;;;5133295;27;20020;-70
2022/11/02 02:30:01;;;;;;;14.88;9.55;;;333.70;2329.60;;;;;;5133309;27;20080;-67
2022/11/02 02:32:56;;;;;;;21.75;12.10;;;333.70;2329.60;;;;;;5133479;27;20042;-70
2022/11/02 02:35:38;;;;;;;17.65;11.07;;;358.40;2329.60;;;;;;5133375;27;20163;-65
2022/11/02 02:38:10;;;;;;;25.55;14.60;;;333.70;2329.60;;;;;;5133460;27;20015;-62
2022/11/02 02:40:57;;;;;;;22.35;10.73;;;333.70;2329.60;;;;;;5133384;27;20400;-59
2022/11/02 02:43:34;;;;;;;21.50;10.13;;;333.70;2329.60;;;;;;5133392;27;20023;-59
2022/11/02 02:46:08;;;;;;;19.80;11.40;;;333.70;2329.60;;;;;;5133096;27;20019;-57
2022/11/02 02:48:37;;;;;;;23.20;11.38;;;333.70;2329.60;;;;;;5133549;27;20019;-65
2022/11/02 02:51:14;;;;;;;15.30;8.57;;;333.60;2329.60;;;;;;5133241;27;20057;-57
2022/11/02 02:53:55;;;;;;;32.42;16.20;;;333.60;2329.60;;;;;;5133005;27;20024;-58
2022/11/02 02:56:24;;;;;;;16.42;8.65;;;333.70;2329.60;;;;;;5132446;27;20027;-59
2022/11/02 02:59:05;;;;;;;17.33;7.63;;;333.70;2329.60;;;;;;5132840;27;20023;-59
2022/11/02 03:01:32;;;;;;;19.25;11.35;;;333.70;2329.60;;;;;;5132787;27;20075;-67
2022/11/02 03:03:58;;;;;;;22.92;11.63;;;333.70;2329.60;;;;;;5132975;27;20027;-58
2022/11/02 03:06:33;;;;;;;36.13;17.98;;;333.70;2329.60;;;;;;5133145;27;20027;-59
2022/11/02 03:09:19;;;;;;;19.95;11.27;;;333.60;2329.60;;;;;;5132599;27;20023;-63
2022/11/02 03:12:04;;;;;;;53.55;33.55;;;333.60;2329.60;;;;;;5132849;27;20035;-64
2022/11/02 03:14:41;;;;;;;28.73;15.57;;;333.50;2329.60;;;;;;5132709;27;20026;-67
2022/11/02 03:17:19;;;;;;;17.67;10.52;;;333.40;2329.60;;;;;;5132978;27;20065;-68
2022/11/02 03:19:57;;;;;;;64.72;33.20;;;333.40;2329.60;;;;;;5132630;27;20027;-57
2022/11/02 03:22:44;;;;;;;38.63;18.92;;;333.30;2329.60;;;;;;5132584;27;20031;-58
2022/11/02 03:25:38;;;;;;;16.85;8.70;;;333.30;2329.60;;;;;;5132434;27;20027;-61
2022/11/02 03:28:48;;;;;;;19.98;10.13;;;333.40;2329.60;;;;;;5132516;27;20068;-70
2022/11/02 03:31:35;;;;;;;19.13;11.05;;;333.40;2329.60;;;;;;5049037;28;20053;-71
2022/11/02 03:34:16;;;;;;;22.27;12.45;;;333.30;2329.60;;;;;;5048945;28;20025;-60
2022/11/02 03:36:53;;;;;;;28.65;18.30;;;333.30;2329.60;;;;;;5048873;28;20074;-72
2022/11/02 03:39:27;;;;;;;26.05;16.02;;;333.10;2329.60;;;;;;5048537;28;20036;-71
2022/11/02 03:41:54;;;;;;;22.88;14.98;;;332.90;2329.60;;;;;;5048792;28;20045;-69
2022/11/02 03:44:24;;;;;;;27.40;15.77;;;332.90;2329.60;;;;;;5048769;28;20078;-67
2022/11/02 03:46:55;;;;;;;25.15;16.75;;;332.80;2329.60;;;;;;5048534;28;20029;-59
2022/11/02 03:49:22;;;;;;;32.47;15.57;;;332.80;2329.60;;;;;;5048560;28;20044;-68
2022/11/02 03:51:49;;;;;;;17.52;10.07;;;308.10;2304.00;;;;;;5048570;28;20070;-62
2022/11/02 03:54:40;;;;;;;14.68;9.48;;;308.10;2304.00;;;;;;5048700;28;20096;-66
2022/11/02 03:57:10;;;;;;;20.30;9.40;;;308.10;2304.00;;;;;;5043968;28;20407;-69
2022/11/02 03:59:36;;;;;;;20.30;8.52;;;332.80;2329.60;;;;;;5048669;28;20104;-70
2022/11/02 04:02:02;;;;;;;21.20;11.40;;;332.80;2329.60;;;;;;5048308;28;20124;-63
2022/11/02 04:04:28;;;;;;;25.92;12.32;;;332.90;2329.60;;;;;;5048455;28;20025;-66
2022/11/02 04:06:54;;;;;;;19.90;11.70;;;332.90;2329.60;;;;;;5048594;28;20532;-72
2022/11/02 04:09:20;;;;;;;19.55;9.68;;;332.90;2329.60;;;;;;5127449;27;20035;-71
2022/11/02 04:14:39;;;;;;;19.38;10.88;;;332.90;2329.60;;;;;;5131476;27;20038;-66
2022/11/02 04:19:55;;;;;;;16.23;11.77;;;332.90;2329.60;;;;;;5131674;27;20118;-65
2022/11/02 04:25:17;;;;;;;17.08;11.40;;;332.90;2329.60;;;;;;5132049;27;20499;-65
2022/11/02 04:27:46;;;;;;;19.80;12.10;;;332.90;2329.60;;;;;;5131398;27;20503;-63
2022/11/02 04:30:14;;;;;;;25.40;14.05;;;332.90;2329.60;;;;;;5131382;27;20046;-69
2022/11/02 04:35:29;;;;;;;17.35;8.02;;;332.80;2329.60;;;;;;5131397;27;20495;-65
2022/11/02 04:40:40;;;;;;;16.02;10.10;;;308.10;2304.00;;;;;;5131012;27;20088;-64
2022/11/02 04:43:06;;;;;;;28.67;15.95;;;308.00;2304.00;;;;;;5112973;27;20422;-68
2022/11/02 04:45:32;;;;;;;21.48;9.63;;;308.00;2304.00;;;;;;5131136;27;20069;-61
2022/11/02 04:48:03;;;;;;;13.98;8.23;;;308.00;2304.00;;;;;;5131126;27;20484;-59
2022/11/02 04:50:30;;;;;;;17.83;7.30;;;308.10;2304.00;;;;;;5131103;28;20105;-66
2022/11/02 04:53:00;;;;;;;15.95;11.50;;;308.10;2304.00;;;;;;5131149;28;20031;-65
2022/11/02 04:55:26;;;;;;;23.60;10.98;;;308.00;2304.00;;;;;;5131211;28;20019;-68
2022/11/02 04:57:52;;;;;;;20.92;9.50;;;308.00;2304.00;;;;;;5130886;28;20489;-67
2022/11/02 05:00:19;;;;;;;16.52;10.02;;;308.00;2304.00;;;;;;5130794;28;20019;-59
2022/11/02 05:02:49;;;;;;;11.45;7.35;;;308.00;2304.00;;;;;;5130988;28;20031;-65
2022/11/02 05:05:15;;;;;;;23.85;7.35;;;308.00;2304.00;;;;;;5131050;28;20048;-57
2022/11/02 05:07:42;;;;;;;21.80;9.70;;;308.00;2304.00;;;;;;5151176;27;20502;-68
2022/11/02 05:10:08;;;;;;;19.80;7.10;;;307.90;2304.00;;;;;;5151423;27;20023;-60
2022/11/02 05:12:34;;;;;;;12.23;7.07;;;307.90;2304.00;;;;;;5151472;27;20130;-67
2022/11/02 05:15:00;;;;;;;14.95;7.50;;;307.80;2304.00;;;;;;5151431;27;20118;-63
2022/11/02 05:17:25;;;;;;;16.02;8.00;;;307.80;2304.00;;;;;;5151515;27;20040;-65
2022/11/02 05:19:51;;;;;;;17.08;7.95;;;307.80;2304.00;;;;;;5153523;27;20035;-69
2022/11/02 05:22:17;;;;;;;13.30;7.28;;;307.80;2304.00;;;;;;5155618;27;20041;-58
2022/11/02 05:24:43;;;;;;;20.58;8.27;;;307.70;2304.00;;;;;;5155498;27;20023;-69
2022/11/02 05:27:09;;;;;;;26.63;18.42;;;307.80;2304.00;;;;;;5155487;27;20109;-59
2022/11/02 05:29:35;;;;;;;16.08;10.40;;;307.80;2304.00;;;;;;5155715;27;20019;-62
2022/11/02 05:32:01;;;;;;;14.70;8.10;;;307.80;2304.00;;;;;;5155253;27;20117;-68
2022/11/02 05:34:27;;;;;;;15.40;7.78;;;307.90;2304.00;;;;;;5155604;27;20051;-63
2022/11/02 05:36:52;;;;;;;16.63;7.28;;;307.90;2304.00;;;;;;5155319;27;20021;-65
2022/11/02 05:39:18;;;;;;;14.43;7.47;;;307.90;2304.00;;;;;;5155066;27;20069;-63
2022/11/02 05:41:44;;;;;;;23.92;12.93;;;308.00;2304.00;;;;;;5155311;27;20502;-59
2022/11/02 05:44:09;;;;;;;18.25;9.60;;;308.10;2304.00;;;;;;5155284;27;20491;-65
2022/11/02 05:46:35;;;;;;;18.88;7.22;;;308.10;2304.00;;;;;;5155341;27;20151;-57
2022/11/02 05:49:01;;;;;;;16.00;7.28;;;332.90;2329.60;;;;;;5155000;27;20456;-63
2022/11/02 05:51:26;;;;;;;19.73;8.60;;;332.90;2329.60;;;;;;5155395;27;20043;-63
2022/11/02 05:53:52;;;;;;;14.85;8.15;;;333.00;2329.60;;;;;;5155103;27;20048;-58
2022/11/02 05:56:18;;;;;;;11.90;8.07;;;333.20;2329.60;;;;;;5155025;27;20030;-59
2022/11/02 05:58:43;;;;;;;16.52;9.20;;;333.20;2329.60;;;;;;5155143;27;20030;-76
2022/11/02 06:01:10;;;;;;;14.10;9.38;;;333.40;2329.60;;;;;;5155096;27;20025;-61
2022/11/02 06:03:35;;;;;;;13.38;7.75;;;333.40;2329.60;;;;;;5155102;27;20035;-73
2022/11/02 06:06:06;;;;;;;18.63;7.63;;;333.60;2329.60;;;;;;5154725;27;20532;-57
2022/11/02 06:08:33;;;;;;;18.08;9.23;;;333.70;2329.60;;;;;;5154869;27;20387;-74
2022/11/02 06:11:06;;;;;;;16.50;8.13;;;333.70;2329.60;;;;;;5154580;27;20467;-77
2022/11/02 06:13:33;;;;;;;15.93;8.00;;;333.70;2329.60;;;;;;5154949;27;20083;-78
2022/11/02 06:16:00;;;;;;;19.58;7.85;;;358.50;2329.60;;;;;;5154418;27;20026;-66
2022/11/02 06:18:26;;;;;;;10.65;7.20;;;358.50;2329.60;;;;;;5154675;27;20031;-62
2022/11/02 06:20:51;;;;;;;16.27;7.43;;;358.50;2329.60;;;;;;5154396;27;20021;-60
2022/11/02 06:23:17;;;;;;;17.65;7.28;;;358.60;2329.60;;;;;;5154402;27;20053;-61
2022/11/02 06:25:49;;;;;;;13.23;8.00;;;358.70;2329.60;;;;;;5154353;27;20019;-60
2022/11/02 06:28:14;;;;;;;16.88;8.32;;;358.80;2329.60;;;;;;5154376;27;20019;-61
2022/11/02 06:30:42;;;;;;;18.98;8.15;;;358.70;2329.60;;;;;;5153291;27;20101;-66
2022/11/02 06:33:07;;;;;;;14.05;8.20;;;358.80;2329.60;;;;;;5154180;27;20022;-65
2022/11/02 06:35:33;;;;;;;18.73;7.82;;;358.80;2329.60;;;;;;5154418;27;20132;-61
2022/11/02 06:37:59;;;;;;;16.70;7.22;;;359.00;2329.60;;;;;;5154081;27;20372;-66
2022/11/02 06:40:27;;;;;;;14.27;6.75;;;359.00;2329.60;;;;;;5154284;27;20099;-61
2022/11/02 06:42:57;;;;;;;14.70;7.22;;;359.00;2329.60;;;;;;5154262;27;20087;-65
2022/11/02 06:45:23;;;;;;;18.77;7.32;;;359.00;2329.60;;;;;;5154133;27;20071;-61
2022/11/02 06:47:49;;;;;;;12.52;7.20;;;359.00;2329.60;;;;;;5153973;27;20462;-67
2022/11/02 06:50:15;;;;;;;15.52;7.18;;;359.00;2329.60;;;;;;5154301;27;20056;-67
2022/11/02 06:52:45;;;;;;;14.65;7.43;;;359.10;2329.60;;;;;;5153955;27;20041;-61
2022/11/02 06:55:11;;;;;;;13.63;7.70;;;359.00;2329.60;;;;;;5154122;27;20089;-66
2022/11/02 06:57:38;;;;;;;23.60;10.95;;;359.00;2329.60;;;;;;5153730;27;20539;-60
2022/11/02 07:00:05;;;;;;;14.30;9.32;;;359.00;2329.60;;;;;;5153935;27;20044;-61
2022/11/02 07:02:31;;;;;;;17.88;9.00;;;359.00;2329.60;;;;;;5134657;27;20037;-67
2022/11/02 07:04:57;;;;;;;21.63;9.68;;;359.10;2329.60;;;;;;5153722;27;20109;-62
2022/11/02 07:07:23;;;;;;;11.02;7.88;;;359.30;2329.60;;;;;;5153734;27;20030;-62
2022/11/02 07:09:49;;;;;;;14.38;7.93;;;384.10;2329.60;;;;;;5153555;27;20041;-67
2022/11/02 07:12:14;;;;;;;13.77;8.13;;;384.20;2329.60;;;;;;5153716;27;20039;-64
2022/11/02 07:14:40;;;;;;;17.33;8.30;;;384.40;2329.60;;;;;;5153433;27;20023;-65
2022/11/02 07:17:06;;;;;;;14.82;8.20;;;384.60;2329.60;;;;;;5153684;27;20074;-63
2022/11/02 07:19:31;;;;;;;15.27;8.00;;;384.60;2329.60;;;;;;5153398;27;20022;-66
2022/11/02 07:21:57;;;;;;;19.52;8.75;;;384.80;2329.60;;;;;;5153273;27;20159;-60
2022/11/02 07:24:23;;;;;;;42.30;9.27;;;410.30;2355.20;;;;;;5153231;27;20023;-67
2022/11/02 07:26:49;;;;;;;16.17;7.50;;;461.10;2380.80;;;;;;5153084;27;20022;-62
2022/11/02 07:29:18;;;;;;;14.63;8.10;;;486.90;2176.00;;;;;;5153336;27;20483;-66
2022/11/02 07:31:44;;;;;;;14.07;6.78;;;512.10;2048.00;;;;;;5153171;27;20045;-64
2022/11/02 07:34:11;;;;;;;21.85;7.72;;;512.60;1971.20;;;;;;5152830;27;20027;-63
2022/11/02 07:36:36;;;;;;;11.75;7.38;;;512.10;1945.60;;;;;;5153422;27;20426;-62
2022/11/02 07:39:03;;;;;;;17.55;9.38;;;512.50;1920.00;;;;;;5152641;27;20144;-62
2022/11/02 07:41:28;;;;;;;29.25;20.85;;;538.00;1894.40;;;;;;5153044;27;20031;-61
2022/11/02 07:43:54;;;;;;;43.65;31.00;;;538.00;1920.00;;;;;;5152995;27;20383;-66
2022/11/02 07:46:20;;;;;;;33.67;26.35;;;538.40;1894.40;;;;;;5152930;27;20071;-63
2022/11/02 07:48:46;;;;;;;37.53;24.40;;;563.90;1843.20;;;;;;5153002;27;20030;-62
2022/11/02 07:51:12;;;;;;;39.70;24.90;;;588.80;1792.00;;;;;;5152656;27;20480;-64
2022/11/02 07:53:38;;;;;;;18.48;14.00;;;589.40;1715.20;;;;;;5152636;27;20048;-62
2022/11/02 07:56:05;;;;;;;28.75;20.48;;;614.60;1664.00;;;;;;5152885;27;20023;-63
2022/11/02 07:58:31;;;;;;;35.05;25.70;;;615.10;1612.80;;;;;;5152620;27;20460;-62
2022/11/02 08:00:58;;;;;;;35.65;27.95;;;640.20;1587.20;;;;;;5152690;27;20432;-62
2022/11/02 08:03:24;;;;;;;28.73;23.45;;;640.70;1536.00;;;;;;5152600;27;20456;-67
2022/11/02 08:05:50;;;;;;;32.63;23.17;;;666.00;1536.00;;;;;;5152313;27;20019;-63
2022/11/02 08:08:21;;;;;;;30.17;20.52;;;666.30;1510.40;;;;;;5152546;27;20536;-63
2022/11/02 08:10:49;;;;;;;32.78;26.20;;;666.40;1484.80;;;;;;5152642;27;20031;-65
2022/11/02 08:13:17;;;;;;;37.58;30.15;;;666.00;1510.40;;;;;;5152253;27;20500;-65
2022/11/02 08:15:43;;;;;;;35.63;23.35;;;666.20;1510.40;;;;;;5152161;27;20026;-66
2022/11/02 08:18:15;;;;;;;29.70;20.98;;;742.40;1433.60;;;;;;5152192;27;20023;-62
2022/11/02 08:20:41;;;;;;;28.17;20.95;;;768.00;1331.20;;;;;;5151997;27;20018;-65
2022/11/02 08:23:10;;;;;;;28.85;19.40;;;768.40;1356.80;;;;;;5152315;27;20413;-64
2022/11/02 08:25:36;;;;;;;45.55;33.28;;;768.30;1331.20;;;;;;5152365;27;20109;-65
2022/11/02 08:28:03;;;;;;;41.97;29.42;;;742.40;1382.40;;;;;;5151939;27;20030;-68
2022/11/02 08:30:30;;;;;;;50.88;31.63;;;742.60;1382.40;;;;;;5151690;27;20019;-69
2022/11/02 08:33:03;;;;;;;39.08;26.38;;;742.90;1382.40;;;;;;5152113;27;20030;-66
2022/11/02 08:35:29;;;;;;;41.50;26.58;;;743.20;1331.20;;;;;;5151942;27;20436;-65
2022/11/02 08:37:55;;;;;;;34.72;27.52;;;768.10;1331.20;;;;;;5151986;27;20114;-63
2022/11/02 08:40:21;;;;;;;41.80;29.30;;;743.20;1331.20;;;;;;5151665;27;20122;-67
2022/11/02 08:42:47;;;;;;;39.17;28.25;;;768.10;1331.20;;;;;;5152016;27;20023;-66
2022/11/02 08:45:12;;;;;;;40.53;27.00;;;768.80;1305.60;;;;;;5151749;27;20075;-66
2022/11/02 08:47:41;;;;;;;37.30;27.08;;;794.00;1280.00;;;;;;5151913;27;20019;-62
2022/11/02 08:50:10;;;;;;;45.47;30.45;;;794.10;1280.00;;;;;;5152083;27;20022;-68
2022/11/02 08:52:37;;;;;;;37.97;27.05;;;819.40;1254.40;;;;;;5152126;27;20113;-67
2022/11/02 08:55:03;;;;;;;43.70;28.13;;;743.10;1331.20;;;;;;5151490;27;20075;-62
2022/11/02 08:57:29;;;;;;;38.55;28.20;;;768.20;1305.60;;;;;;5151666;27;20054;-64
2022/11/02 08:59:55;;;;;;;38.90;28.73;;;768.50;1305.60;;;;;;5151830;27;20472;-63
2022/11/02 09:02:20;;;;;;;39.33;28.45;;;742.80;1382.40;;;;;;5151682;27;20019;-62
2022/11/02 09:04:46;;;;;;;34.63;27.63;;;743.30;1331.20;;;;;;5151792;27;20026;-67
2022/11/02 09:07:12;;;;;;;35.15;28.63;;;742.70;1408.00;;;;;;5151494;27;20027;-62
2022/11/02 09:09:38;;;;;;;37.35;27.63;;;717.40;1433.60;;;;;;5151499;27;20037;-63
2022/11/02 09:12:03;;;;;;;32.67;26.25;;;691.20;1510.40;;;;;;5151626;27;20106;-62
2022/11/02 09:14:29;;;;;;;40.80;28.77;;;665.60;1561.60;;;;;;5151526;27;20152;-64
2022/11/02 09:16:55;;;;;;;35.60;29.60;;;640.70;1587.20;;;;;;5151511;27;20444;-61
2022/11/02 09:19:20;;;;;;;41.33;32.28;;;640.40;1612.80;;;;;;5151401;27;20019;-61
2022/11/02 09:21:48;;;;;;;36.75;28.25;;;640.50;1612.80;;;;;;5151600;27;20049;-67
2022/11/02 09:24:14;;;;;;;44.95;32.00;;;614.50;1715.20;;;;;;5151512;27;20023;-62
2022/11/02 09:26:40;;;;;;;49.22;33.10;;;614.60;1715.20;;;;;;5151155;27;20034;-62
2022/11/02 09:29:05;;;;;;;47.28;36.47;;;589.30;1792.00;;;;;;5151445;27;20019;-63
2022/11/02 09:31:31;;;;;;;40.67;31.23;;;589.10;1817.60;;;;;;5151249;27;20058;-62
2022/11/02 09:33:57;;;;;;;43.92;32.42;;;589.40;1817.60;;;;;;5151447;27;20029;-62
2022/11/02 09:36:23;;;;;;;45.63;34.13;;;589.40;1843.20;;;;;;5151486;27;20023;-62
2022/11/02 09:38:48;;;;;;;56.70;39.15;;;589.70;1843.20;;;;;;5150977;27;20114;-62
2022/11/02 09:41:38;;;;;;;48.33;37.92;;;589.70;1843.20;;;;;;5151521;27;20046;-62
2022/11/02 09:44:10;;;;;;;46.42;37.08;;;614.40;1843.20;;;;;;5151308;27;20019;-63
2022/11/02 09:46:44;;;;;;;49.60;39.10;;;589.50;1894.40;;;;;;5151471;27;20046;-62
2022/11/02 09:49:17;;;;;;;53.72;40.78;;;589.00;1920.00;;;;;;5151221;27;20046;-65
2022/11/02 09:51:49;;;;;;;53.73;40.20;;;589.20;1920.00;;;;;;5151243;27;20035;-66
2022/11/02 09:54:50;;;;;;;56.78;41.13;;;588.90;1945.60;;;;;;5151463;27;20023;-62
2022/11/02 09:57:26;;;;;;;44.30;37.40;;;588.80;1971.20;;;;;;5067351;28;20028;-62
2022/11/02 09:59:52;;;;;;;49.22;40.22;;;589.30;1920.00;;;;;;5067133;28;20540;-66
2022/11/02 10:02:44;;;;;;;51.22;35.47;;;589.50;1920.00;;;;;;5067317;28;20051;-62
2022/11/02 10:05:35;;;;;;;52.97;39.20;;;589.10;1945.60;;;;;;5067278;28;20183;-62
2022/11/02 10:08:10;;;;;;;61.20;42.30;;;563.90;1996.80;;;;;;5070312;28;20506;-62
2022/11/02 10:10:57;;;;;;;55.85;39.63;;;563.90;2022.40;;;;;;5070895;28;20444;-63
2022/11/02 10:13:41;;;;;;;57.42;40.35;;;564.00;1996.80;;;;;;5070610;28;20076;-65
2022/11/02 10:16:16;;;;;;;50.38;38.92;;;563.60;2048.00;;;;;;5070890;28;20139;-61
2022/11/02 10:18:47;;;;;;;60.63;41.38;;;563.90;2022.40;;;;;;5070379;28;20029;-66
2022/11/02 10:21:22;;;;;;;58.42;43.47;;;563.80;2048.00;;;;;;5070490;28;20032;-64
2022/11/02 10:23:52;;;;;;;52.55;39.80;;;564.00;2022.40;;;;;;5070357;28;20520;-62
2022/11/02 10:26:32;;;;;;;45.20;35.83;;;563.80;2022.40;;;;;;5070136;28;20040;-61
2022/11/02 10:29:13;;;;;;;57.75;41.15;;;563.90;1996.80;;;;;;5070116;28;20024;-62
2022/11/02 10:31:38;;;;;;;61.30;49.28;;;563.90;2022.40;;;;;;5070098;28;20131;-61
2022/11/02 10:34:27;;;;;;;58.55;45.85;;;563.20;2099.20;;;;;;5154333;27;20019;-61
2022/11/02 10:37:15;;;;;;;60.80;46.50;;;563.30;2099.20;;;;;;5154398;27;20034;-64
2022/11/02 10:39:59;;;;;;;58.10;47.30;;;563.60;2099.20;;;;;;5153706;27;20038;-61
2022/11/02 10:42:49;;;;;;;61.00;49.42;;;563.30;2124.80;;;;;;5154267;27;20431;-65
2022/11/02 10:45:20;;;;;;;71.25;53.13;;;563.70;2099.20;;;;;;5154317;27;20696;-62
2022/11/02 10:48:05;;;;;;;64.53;50.38;;;563.50;2124.80;;;;;;5154081;27;20069;-66
2022/11/02 10:50:58;;;;;;;63.72;50.22;;;563.30;2150.40;;;;;;5153914;27;20101;-60
2022/11/02 10:53:23;;;;;;;61.72;49.33;;;563.30;2176.00;;;;;;5154234;27;20023;-61
2022/11/02 10:55:49;;;;;;;66.95;52.25;;;563.20;2176.00;;;;;;5154038;27;20105;-62
2022/11/02 10:58:20;;;;;;;63.25;51.33;;;538.50;2176.00;;;;;;5153799;27;20464;-60
2022/11/02 11:00:46;;;;;;;68.63;54.40;;;563.20;2176.00;;;;;;5153785;27;20503;-61
2022/11/02 11:03:17;;;;;;;68.68;51.25;;;538.20;2227.20;;;;;;5153757;27;20026;-64
2022/11/02 11:05:57;;;;;;;66.85;54.05;;;538.50;2201.60;;;;;;5153459;27;20015;-62
2022/11/02 11:08:39;;;;;;;66.28;52.42;;;538.50;2201.60;;;;;;5153713;27;20049;-61
2022/11/02 11:11:33;;;;;;;69.10;51.93;;;563.30;2252.80;;;;;;5153878;27;20030;-60
2022/11/02 11:13:58;;;;;;;66.38;53.63;;;563.30;2227.20;;;;;;5153459;27;20333;-63
2022/11/02 11:16:55;;;;;;;66.20;53.35;;;538.40;2227.20;;;;;;5153590;27;20466;-60
2022/11/02 11:19:22;;;;;;;60.63;47.58;;;563.30;2252.80;;;;;;5133571;27;20073;-63
2022/11/02 11:21:49;;;;;;;67.60;50.38;;;538.20;2252.80;;;;;;5153293;27;20034;-60
2022/11/02 11:24:28;;;;;;;68.50;49.75;;;538.40;2227.20;;;;;;5153314;27;20480;-60
2022/11/02 11:27:17;;;;;;;58.60;46.25;;;538.30;2252.80;;;;;;5153154;27;20033;-64
2022/11/02 11:29:49;;;;;;;64.53;48.33;;;563.30;2227.20;;;;;;5134636;27;20064;-61
2022/11/02 11:32:18;;;;;;;62.53;48.78;;;538.50;2227.20;;;;;;5153087;27;20461;-66
2022/11/02 11:34:52;;;;;;;68.53;50.25;;;538.10;2252.80;;;;;;5153078;27;20054;-62
2022/11/02 11:37:18;;;;;;;64.15;50.50;;;538.20;2252.80;;;;;;5152743;27;20026;-61
2022/11/02 11:39:49;;;;;;;68.28;53.67;;;538.10;2278.40;;;;;;5152735;27;20494;-60
2022/11/02 11:42:21;;;;;;;64.10;51.28;;;537.90;2304.00;;;;;;5153011;27;20032;-61
2022/11/02 11:45:06;;;;;;;67.53;53.83;;;512.90;2355.20;;;;;;5153274;27;20023;-64
2022/11/02 11:47:37;;;;;;;75.68;52.63;;;537.70;2380.80;;;;;;5152905;27;20105;-62
2022/11/02 11:50:17;;;;;;;73.97;53.10;;;537.80;2355.20;;;;;;5153000;27;20421;-65
2022/11/02 11:52:43;;;;;;;70.13;53.72;;;537.70;2380.80;;;;;;5152592;27;20540;-61
2022/11/02 11:55:44;;;;;;;67.90;53.95;;;512.90;2380.80;;;;;;5152981;27;20049;-61
2022/11/02 11:58:20;;;;;;;70.65;52.00;;;512.60;2380.80;;;;;;5152651;27;20019;-62
2022/11/02 12:01:00;;;;;;;75.30;53.72;;;512.60;2380.80;;;;;;5153015;27;20023;-61
2022/11/02 12:03:26;;;;;;;72.00;55.78;;;512.90;2380.80;;;;;;5152935;27;20444;-61
2022/11/02 12:05:54;;;;;;;67.32;52.15;;;512.70;2380.80;;;;;;5152426;27;20480;-62
2022/11/02 12:08:23;;;;;;;68.22;50.50;;;537.70;2406.40;;;;;;5152279;27;20027;-62
2022/11/02 12:10:55;;;;;;;68.90;50.13;;;537.80;2406.40;;;;;;5152178;27;20054;-60
2022/11/02 12:13:42;;;;;;;70.32;52.95;;;512.90;2380.80;;;;;;5152308;27;20043;-61
2022/11/02 12:16:18;;;;;;;70.32;49.30;;;512.70;2380.80;;;;;;5152520;27;20022;-61
2022/11/02 12:18:59;;;;;;;68.55;50.15;;;537.80;2406.40;;;;;;5152413;27;20023;-63
2022/11/02 12:21:30;;;;;;;65.65;49.42;;;512.80;2380.80;;;;;;5152232;27;20019;-60
2022/11/02 12:24:16;;;;;;;70.95;49.38;;;512.90;2380.80;;;;;;5152179;27;20031;-64
2022/11/02 12:26:55;;;;;;;61.83;46.08;;;512.90;2380.80;;;;;;5151916;27;20472;-62
2022/11/02 12:29:42;;;;;;;67.93;49.20;;;512.90;2380.80;;;;;;5151017;27;20106;-67
2022/11/02 12:32:23;;;;;;;65.60;49.00;;;512.90;2380.80;;;;;;5152328;27;20038;-62